Time;durP1;ratioP1;P1;durP2;ratioP2;P2;SDS_P1;SDS_P2;PMS_P1;PMS_P2;Temp;Humidity;BMP_temperature;BMP_pressure;BME280_temperature;BME280_humidity;BME280_pressure;Samples;Min_cycle;Max_cycle;Signal;HPM_P1;HPM_P2
2021/05/02 04:00:25;;;;;;;90.30;37.75;;;7.20;99.90;;;;;;5944999;23;20377;-70
2021/05/02 04:02:51;;;;;;;81.32;38.30;;;7.20;99.90;;;;;;4917637;29;20218;-70
2021/05/02 04:05:17;;;;;;;92.00;38.08;;;7.20;99.90;;;;;;4918424;29;20281;-70
2021/05/02 04:07:43;;;;;;;81.88;37.05;;;7.20;99.90;;;;;;4918658;29;20206;-70
2021/05/02 04:10:10;;;;;;;86.47;36.10;;;7.20;99.90;;;;;;4918569;29;20233;-69
2021/05/02 04:12:36;;;;;;;84.05;37.05;;;7.20;99.90;;;;;;4917601;29;20237;-70
2021/05/02 04:15:03;;;;;;;77.30;35.35;;;7.20;99.90;;;;;;4917328;29;20218;-70
2021/05/02 04:17:30;;;;;;;84.15;38.17;;;7.20;99.90;;;;;;4917516;29;20206;-70
2021/05/02 04:19:56;;;;;;;75.63;35.67;;;7.20;99.90;;;;;;4917803;29;20238;-70
2021/05/02 04:22:22;;;;;;;73.07;35.35;;;7.20;99.90;;;;;;4917314;29;20230;-69
2021/05/02 04:24:49;;;;;;;69.53;35.28;;;7.30;99.90;;;;;;4917750;29;20218;-70
2021/05/02 04:27:16;;;;;;;72.85;35.38;;;7.30;99.90;;;;;;4917206;29;20257;-69
2021/05/02 04:29:42;;;;;;;80.78;36.92;;;7.30;99.90;;;;;;4916901;29;20535;-70
2021/05/02 04:32:08;;;;;;;65.60;32.83;;;7.30;99.90;;;;;;4916894;29;20241;-69
2021/05/02 04:34:35;;;;;;;62.78;33.97;;;7.40;99.90;;;;;;4917363;29;20214;-70
2021/05/02 04:37:02;;;;;;;61.05;32.78;;;7.40;99.90;;;;;;4920515;29;20214;-69
2021/05/02 04:39:28;;;;;;;58.50;33.10;;;7.40;99.90;;;;;;4933724;29;20226;-70
2021/05/02 04:41:55;;;;;;;66.00;32.58;;;7.40;99.90;;;;;;4932428;29;20707;-70
2021/05/02 04:44:22;;;;;;;57.65;31.48;;;7.40;99.90;;;;;;4931504;29;20214;-70
2021/05/02 04:46:48;;;;;;;56.00;31.13;;;7.40;99.90;;;;;;4922334;29;20215;-68
2021/05/02 04:49:15;;;;;;;53.80;31.45;;;7.50;99.90;;;;;;4917514;29;20206;-67
2021/05/02 04:51:42;;;;;;;49.72;31.45;;;7.50;99.90;;;;;;4917300;29;20257;-67
2021/05/02 04:54:09;;;;;;;53.35;31.27;;;7.50;99.90;;;;;;4916263;29;20217;-68
2021/05/02 04:56:35;;;;;;;50.08;29.38;;;7.60;99.90;;;;;;4916940;29;20206;-68
2021/05/02 04:59:02;;;;;;;53.08;30.15;;;7.60;99.90;;;;;;4916478;29;20234;-67
2021/05/02 05:01:28;;;;;;;47.75;28.80;;;7.60;99.90;;;;;;4916780;29;20787;-68
2021/05/02 05:03:55;;;;;;;56.85;31.23;;;7.70;99.90;;;;;;4917052;29;20262;-68
2021/05/02 05:06:22;;;;;;;49.60;30.40;;;7.70;99.90;;;;;;4916782;29;20215;-68
2021/05/02 05:08:49;;;;;;;50.05;30.52;;;7.80;99.90;;;;;;4916986;29;20574;-67
2021/05/02 05:11:16;;;;;;;49.53;29.70;;;7.80;99.90;;;;;;4916556;29;20226;-68
2021/05/02 05:13:42;;;;;;;51.60;29.50;;;7.90;99.90;;;;;;4916218;29;20663;-68
2021/05/02 05:16:08;;;;;;;58.22;32.03;;;7.90;99.90;;;;;;4916296;29;20315;-68
2021/05/02 05:18:34;;;;;;;45.63;28.77;;;8.00;99.90;;;;;;4916736;29;20230;-68
2021/05/02 05:21:00;;;;;;;51.60;30.13;;;8.00;99.90;;;;;;4916337;29;20715;-68
2021/05/02 05:23:26;;;;;;;45.53;30.15;;;8.10;99.90;;;;;;4916081;29;20221;-68
2021/05/02 05:25:55;;;;;;;48.30;31.48;;;8.20;99.90;;;;;;4916224;29;20275;-68
2021/05/02 05:28:23;;;;;;;47.60;28.50;;;8.30;99.90;;;;;;4916048;29;20241;-68
2021/05/02 05:30:49;;;;;;;43.35;28.45;;;8.40;99.90;;;;;;4916011;29;20236;-68
2021/05/02 05:33:15;;;;;;;41.38;28.10;;;8.40;99.90;;;;;;4916108;29;20293;-68
2021/05/02 05:35:41;;;;;;;45.88;30.30;;;8.50;99.90;;;;;;4916278;29;20217;-68
2021/05/02 05:38:09;;;;;;;40.85;27.27;;;8.50;99.90;;;;;;4915920;29;20218;-68
2021/05/02 05:40:35;;;;;;;42.20;27.85;;;8.60;99.90;;;;;;4916168;29;20598;-68
2021/05/02 05:43:03;;;;;;;39.58;25.88;;;8.60;99.90;;;;;;4916028;29;20214;-70
2021/05/02 05:45:30;;;;;;;39.20;25.13;;;8.70;99.90;;;;;;4915355;29;20270;-68
2021/05/02 05:47:57;;;;;;;40.50;26.15;;;8.70;99.90;;;;;;4916117;29;20659;-68
2021/05/02 05:50:24;;;;;;;32.30;23.63;;;8.70;99.90;;;;;;4915888;29;20262;-69
2021/05/02 05:52:51;;;;;;;41.20;25.80;;;8.80;99.90;;;;;;4915733;29;20564;-68
2021/05/02 05:55:18;;;;;;;35.40;24.23;;;8.90;99.90;;;;;;4916004;29;20357;-68
2021/05/02 05:57:45;;;;;;;33.17;23.95;;;9.00;99.90;;;;;;4915974;29;20626;-68
2021/05/02 06:00:15;;;;;;;33.97;24.38;;;9.00;99.90;;;;;;4915617;29;20270;-68
2021/05/02 06:02:41;;;;;;;29.05;22.02;;;9.10;99.90;;;;;;4915242;29;20443;-68
2021/05/02 06:05:09;;;;;;;33.95;23.75;;;9.20;99.90;;;;;;4916931;29;20210;-68
2021/05/02 06:07:35;;;;;;;27.20;20.90;;;9.30;99.90;;;;;;4919679;29;20214;-68
2021/05/02 06:10:01;;;;;;;32.10;22.08;;;9.30;99.90;;;;;;4920012;29;20359;-68
2021/05/02 06:12:27;;;;;;;29.48;22.00;;;9.30;99.90;;;;;;4919218;29;20230;-68
2021/05/02 06:14:53;;;;;;;30.70;22.50;;;9.30;99.90;;;;;;4919538;29;20238;-68
2021/05/02 06:17:21;;;;;;;33.85;21.27;;;9.30;99.90;;;;;;4918990;29;20214;-68
2021/05/02 06:19:47;;;;;;;28.13;22.00;;;9.40;99.90;;;;;;4919357;29;20249;-68
2021/05/02 06:22:13;;;;;;;26.23;20.90;;;9.50;99.90;;;;;;4919483;29;20388;-68
2021/05/02 06:24:39;;;;;;;28.48;20.13;;;9.50;99.90;;;;;;4919870;29;20219;-68
2021/05/02 06:27:06;;;;;;;25.80;20.10;;;9.60;99.90;;;;;;4919565;29;20206;-68
2021/05/02 06:29:32;;;;;;;23.55;18.63;;;9.70;99.90;;;;;;4919464;29;20218;-68
2021/05/02 06:31:58;;;;;;;26.88;20.10;;;9.70;99.90;;;;;;4919159;29;20293;-67
2021/05/02 06:34:25;;;;;;;21.05;17.23;;;9.80;99.90;;;;;;4919171;29;20652;-68
2021/05/02 06:36:57;;;;;;;21.50;18.92;;;9.70;99.90;;;;;;4919534;29;20618;-67
2021/05/02 06:39:23;;;;;;;22.02;17.85;;;9.70;99.90;;;;;;4919361;29;20294;-67
2021/05/02 06:41:50;;;;;;;23.10;18.40;;;9.70;99.90;;;;;;4919325;29;20233;-69
2021/05/02 06:44:16;;;;;;;21.48;17.95;;;9.80;99.90;;;;;;4918851;29;20214;-69
2021/05/02 06:46:42;;;;;;;25.73;18.33;;;9.90;99.90;;;;;;4918891;29;20270;-69
2021/05/02 06:49:08;;;;;;;24.50;18.58;;;10.10;99.90;;;;;;4919244;29;20202;-67
2021/05/02 06:51:37;;;;;;;22.55;18.15;;;10.30;99.90;;;;;;4919477;29;20260;-67
2021/05/02 06:54:05;;;;;;;21.25;17.70;;;10.30;99.90;;;;;;4919306;29;20233;-70
2021/05/02 06:56:32;;;;;;;23.23;19.40;;;10.20;99.90;;;;;;4919287;29;20552;-71
2021/05/02 06:58:59;;;;;;;27.88;20.75;;;10.10;99.90;;;;;;4918563;29;20685;-71
2021/05/02 07:01:26;;;;;;;22.23;19.30;;;10.20;99.90;;;;;;4918318;29;20867;-71
2021/05/02 07:03:52;;;;;;;26.38;20.98;;;10.20;99.90;;;;;;4918835;29;20759;-71
2021/05/02 07:06:19;;;;;;;21.88;18.65;;;10.20;99.90;;;;;;4918882;29;20234;-71
2021/05/02 07:08:46;;;;;;;23.50;19.35;;;10.10;99.90;;;;;;4919002;29;20207;-71
2021/05/02 07:11:12;;;;;;;25.05;21.08;;;10.10;99.90;;;;;;4918779;29;20234;-71
2021/05/02 07:13:39;;;;;;;25.67;20.60;;;10.20;99.90;;;;;;4918354;29;20304;-68
2021/05/02 07:16:05;;;;;;;26.35;20.92;;;10.40;99.90;;;;;;4917562;29;20655;-68
2021/05/02 07:18:34;;;;;;;26.80;21.67;;;10.70;99.90;;;;;;4918931;29;20294;-68
2021/05/02 07:21:00;;;;;;;23.00;20.08;;;10.90;99.90;;;;;;4918817;29;20314;-68
2021/05/02 07:23:26;;;;;;;20.45;18.25;;;11.20;99.90;;;;;;4918404;29;20227;-68
2021/05/02 07:25:54;;;;;;;22.25;19.35;;;11.20;99.90;;;;;;4918752;29;20629;-68
2021/05/02 07:28:20;;;;;;;26.58;20.70;;;11.40;99.90;;;;;;4918049;29;20221;-68
2021/05/02 07:30:47;;;;;;;22.00;19.52;;;11.50;99.90;;;;;;4917798;29;20234;-68
2021/05/02 07:33:13;;;;;;;23.63;19.75;;;11.50;99.90;;;;;;4918213;29;20211;-68
2021/05/02 07:35:39;;;;;;;20.38;17.98;;;11.50;99.90;;;;;;4918470;29;20210;-68
2021/05/02 07:38:05;;;;;;;20.63;17.83;;;11.50;99.90;;;;;;4918746;29;20238;-69
2021/05/02 07:40:32;;;;;;;21.60;18.85;;;11.70;99.90;;;;;;4918138;29;20231;-68
2021/05/02 07:42:59;;;;;;;17.42;15.57;;;11.80;99.90;;;;;;4918234;29;20591;-68
2021/05/02 07:45:25;;;;;;;18.77;16.83;;;11.90;99.90;;;;;;4917238;29;20217;-69
2021/05/02 07:47:51;;;;;;;19.85;16.63;;;11.80;99.90;;;;;;4918314;29;20217;-68
2021/05/02 07:50:18;;;;;;;19.05;16.67;;;11.90;99.90;;;;;;4917858;29;20210;-68
2021/05/02 07:52:44;;;;;;;20.00;18.00;;;11.90;99.90;;;;;;4917776;29;20214;-68
2021/05/02 07:55:11;;;;;;;18.00;16.20;;;12.00;99.90;;;;;;4917838;29;20206;-68
2021/05/02 07:57:37;;;;;;;19.92;16.05;;;12.00;99.90;;;;;;4917574;29;20579;-68
2021/05/02 08:00:07;;;;;;;17.80;16.00;;;12.00;99.90;;;;;;4917033;29;20257;-68
2021/05/02 08:02:33;;;;;;;19.50;16.67;;;12.10;99.90;;;;;;4917003;29;20218;-68
2021/05/02 08:05:00;;;;;;;18.30;16.40;;;12.10;99.90;;;;;;4917703;29;20207;-68
2021/05/02 08:07:26;;;;;;;19.58;16.92;;;12.00;99.90;;;;;;4917596;29;20233;-68
2021/05/02 08:09:52;;;;;;;20.45;17.90;;;11.80;99.90;;;;;;4918095;29;20524;-68
2021/05/02 08:12:18;;;;;;;21.52;18.00;;;11.70;99.90;;;;;;4917316;29;20237;-68
2021/05/02 08:14:44;;;;;;;18.65;16.75;;;11.60;99.90;;;;;;4917193;29;20628;-68
2021/05/02 08:17:12;;;;;;;18.40;16.50;;;11.60;99.90;;;;;;4917308;29;20709;-68
2021/05/02 08:19:38;;;;;;;19.77;16.45;;;11.80;99.90;;;;;;4917532;29;20231;-68
2021/05/02 08:22:04;;;;;;;16.83;15.00;;;12.00;99.90;;;;;;4917370;29;20234;-68
2021/05/02 08:24:31;;;;;;;15.80;14.30;;;12.40;99.90;;;;;;4917585;29;20667;-68
2021/05/02 08:26:57;;;;;;;14.97;13.47;;;12.70;99.90;;;;;;4917044;29;20580;-68
2021/05/02 08:29:24;;;;;;;12.30;11.10;;;12.90;99.90;;;;;;4916500;29;20477;-68
2021/05/02 08:31:50;;;;;;;13.17;11.93;;;13.00;99.90;;;;;;4917028;29;20487;-68
2021/05/02 08:34:17;;;;;;;12.63;11.40;;;13.10;99.90;;;;;;4916933;29;20533;-68
2021/05/02 08:36:43;;;;;;;13.23;12.13;;;13.20;99.90;;;;;;4917081;29;20470;-71
2021/05/02 08:39:09;;;;;;;13.50;12.10;;;13.30;99.90;;;;;;4917214;29;20538;-71
2021/05/02 08:41:36;;;;;;;13.43;12.33;;;13.30;99.90;;;;;;4917249;29;20513;-71
2021/05/02 08:44:04;;;;;;;14.57;13.07;;;13.40;99.90;;;;;;4916853;29;20473;-71
2021/05/02 08:46:30;;;;;;;13.00;11.80;;;13.40;99.90;;;;;;4917007;29;20469;-71
2021/05/02 08:48:57;;;;;;;13.93;12.67;;;13.30;99.90;;;;;;4917278;29;20467;-70
2021/05/02 08:51:24;;;;;;;13.53;12.30;;;13.20;99.90;;;;;;4917563;29;20857;-72
2021/05/02 08:53:50;;;;;;;12.93;11.83;;;13.00;99.90;;;;;;4916981;29;20808;-71
2021/05/02 08:56:17;;;;;;;10.93;10.03;;;12.90;99.90;;;;;;4917112;29;21043;-71
2021/05/02 08:58:43;;;;;;;13.00;11.57;;;12.90;99.90;;;;;;4916528;29;20513;-71
2021/05/02 09:01:09;;;;;;;12.10;11.10;;;13.00;99.90;;;;;;4921384;29;20494;-72
2021/05/02 09:03:44;;;;;;;12.50;10.77;;;13.10;99.90;;;;;;4926214;29;20570;-73
2021/05/02 09:06:18;;;;;;;8.93;8.23;;;13.00;99.90;;;;;;4925017;29;20481;-73
2021/05/02 09:08:46;;;;;;;10.00;9.03;;;13.00;99.90;;;;;;4923100;29;20513;-73
2021/05/02 09:11:13;;;;;;;9.80;9.00;;;12.80;99.90;;;;;;4916814;29;20979;-73
2021/05/02 09:13:52;;;;;;;9.23;8.50;;;12.70;99.90;;;;;;4916387;29;20533;-73
2021/05/02 09:16:19;;;;;;;8.83;8.23;;;12.60;99.90;;;;;;4916363;29;20453;-72
2021/05/02 09:18:48;;;;;;;8.97;8.27;;;12.70;99.90;;;;;;4916673;29;20568;-73
2021/05/02 09:21:26;;;;;;;7.75;7.13;;;12.80;99.90;;;;;;4916648;29;20581;-73
2021/05/02 09:23:54;;;;;;;7.57;6.93;;;12.80;99.90;;;;;;4916610;29;20273;-73
2021/05/02 09:26:23;;;;;;;7.93;7.37;;;12.90;99.90;;;;;;4916547;29;20933;-72
2021/05/02 09:28:51;;;;;;;8.10;7.50;;;12.80;99.90;;;;;;4916067;29;20466;-73
2021/05/02 09:31:19;;;;;;;7.90;7.30;;;12.70;99.90;;;;;;4916206;29;20491;-73
2021/05/02 09:33:45;;;;;;;8.25;7.45;;;12.60;99.90;;;;;;4916245;29;20214;-73
2021/05/02 09:36:14;;;;;;;8.33;7.73;;;12.60;99.90;;;;;;4917112;29;20210;-74
2021/05/02 09:38:41;;;;;;;8.73;8.05;;;12.50;99.90;;;;;;4917114;29;20553;-73
2021/05/02 09:41:10;;;;;;;7.53;6.93;;;12.50;99.90;;;;;;4916722;29;20231;-74
2021/05/02 09:43:39;;;;;;;6.43;6.00;;;12.50;99.90;;;;;;4916255;29;20218;-74
2021/05/02 09:46:27;;;;;;;6.82;6.32;;;12.60;99.90;;;;;;4924985;29;20245;-73
2021/05/02 09:48:58;;;;;;;7.03;6.53;;;12.60;99.90;;;;;;4928791;29;20302;-73
2021/05/02 09:51:26;;;;;;;5.60;5.30;;;12.80;99.90;;;;;;4924291;29;20276;-73
2021/05/02 09:54:07;;;;;;;5.28;4.80;;;12.90;99.90;;;;;;4923818;29;20237;-71
2021/05/02 09:56:39;;;;;;;5.47;5.17;;;13.00;99.90;;;;;;4918883;29;20217;-72
2021/05/02 09:59:18;;;;;;;4.80;4.53;;;12.90;99.90;;;;;;4917945;29;20947;-71
2021/05/02 10:02:03;;;;;;;5.47;5.13;;;12.90;99.90;;;;;;4917855;29;20498;-71
2021/05/02 10:04:30;;;;;;;4.80;4.60;;;13.00;99.90;;;;;;4916320;29;20450;-71
2021/05/02 10:06:57;;;;;;;4.60;4.30;;;13.00;99.90;;;;;;4915610;29;20532;-72
2021/05/02 10:09:23;;;;;;;5.87;4.60;;;13.00;99.90;;;;;;4916300;29;20478;-71
2021/05/02 10:11:50;;;;;;;5.10;4.80;;;12.80;99.90;;;;;;4916309;29;20491;-72
2021/05/02 10:14:16;;;;;;;4.90;4.60;;;12.70;99.90;;;;;;4915991;29;20552;-72
2021/05/02 10:16:43;;;;;;;4.78;4.55;;;12.80;99.90;;;;;;4915530;29;20866;-71
2021/05/02 10:19:10;;;;;;;4.73;4.43;;;12.80;99.90;;;;;;4915752;29;20226;-70
2021/05/02 10:21:36;;;;;;;4.43;4.23;;;12.80;99.90;;;;;;4915805;29;20574;-70
2021/05/02 10:24:04;;;;;;;4.53;4.23;;;12.80;99.90;;;;;;4915753;29;20788;-70
2021/05/02 10:26:30;;;;;;;5.33;5.03;;;13.00;99.90;;;;;;4915816;29;20845;-71
2021/05/02 10:28:57;;;;;;;6.30;5.90;;;13.20;99.90;;;;;;4915419;29;20463;-70
2021/05/02 10:31:28;;;;;;;5.10;4.80;;;13.20;99.90;;;;;;4915222;29;21042;-71
2021/05/02 10:33:54;;;;;;;5.33;5.03;;;13.10;99.90;;;;;;4915638;29;20502;-70
2021/05/02 10:36:21;;;;;;;6.00;5.50;;;13.00;99.90;;;;;;4915587;29;20474;-70
2021/05/02 10:38:52;;;;;;;6.37;5.87;;;13.00;99.90;;;;;;4915875;29;20214;-70
2021/05/02 10:41:27;;;;;;;6.33;5.57;;;12.90;99.90;;;;;;4915602;29;21014;-70
2021/05/02 10:43:55;;;;;;;5.70;5.40;;;12.90;99.90;;;;;;4915114;29;20910;-71
2021/05/02 10:46:53;;;;;;;6.93;6.40;;;12.90;99.90;;;;;;4915411;29;20235;-71
2021/05/02 10:49:56;;;;;;;7.30;6.22;;;12.90;99.90;;;;;;4857687;29;20461;-70
2021/05/02 10:52:35;;;;;;;6.70;6.30;;;12.90;99.90;;;;;;4918322;29;20230;-71
2021/05/02 10:55:09;;;;;;;7.80;7.20;;;12.90;99.90;;;;;;4919313;29;20465;-71
2021/05/02 10:57:37;;;;;;;8.07;6.97;;;13.00;99.90;;;;;;4918970;29;20264;-71
2021/05/02 11:00:07;;;;;;;7.03;6.53;;;13.10;99.90;;;;;;4918666;29;20490;-71
2021/05/02 11:02:38;;;;;;;7.90;7.30;;;13.30;99.90;;;;;;4918507;29;20479;-71
2021/05/02 11:05:06;;;;;;;7.50;6.90;;;13.20;99.90;;;;;;4919214;29;20496;-74
2021/05/02 11:07:34;;;;;;;8.27;7.50;;;13.40;99.90;;;;;;4919242;29;20486;-74
2021/05/02 11:10:00;;;;;;;7.90;7.27;;;13.60;99.90;;;;;;4919078;29;20513;-74
2021/05/02 11:12:29;;;;;;;7.27;6.77;;;13.70;99.90;;;;;;4919224;29;20506;-73
2021/05/02 11:14:55;;;;;;;7.77;7.07;;;13.80;99.90;;;;;;4918831;29;20814;-74
2021/05/02 11:17:30;;;;;;;6.60;6.10;;;13.90;99.90;;;;;;4918724;29;20949;-74
2021/05/02 11:20:01;;;;;;;5.20;4.90;;;14.00;99.90;;;;;;4918960;29;20540;-74
2021/05/02 11:22:29;;;;;;;6.17;5.80;;;14.00;99.90;;;;;;4918917;29;20490;-73
2021/05/02 11:25:08;;;;;;;5.67;5.37;;;14.00;99.90;;;;;;4919277;29;20466;-74
2021/05/02 11:27:57;;;;;;;5.43;4.80;;;14.00;99.90;;;;;;4919578;29;20470;-74
2021/05/02 11:30:25;;;;;;;6.07;5.50;;;13.90;99.90;;;;;;4918193;29;20463;-74
2021/05/02 11:32:53;;;;;;;6.53;6.03;;;13.80;99.90;;;;;;4918672;29;20562;-71
2021/05/02 11:35:39;;;;;;;6.67;6.13;;;13.70;99.90;;;;;;4918753;29;20963;-71
2021/05/02 11:38:06;;;;;;;5.70;5.30;;;13.70;99.90;;;;;;4918675;29;20498;-72
2021/05/02 11:40:39;;;;;;;5.57;5.27;;;13.60;99.90;;;;;;4918302;29;20994;-72
2021/05/02 11:43:09;;;;;;;4.20;4.00;;;13.50;99.90;;;;;;4918222;29;20482;-73
2021/05/02 11:45:47;;;;;;;4.43;4.23;;;13.50;99.90;;;;;;4918168;29;20475;-71
2021/05/02 11:48:18;;;;;;;3.57;3.27;;;13.50;99.90;;;;;;4919376;29;20470;-73
2021/05/02 11:50:47;;;;;;;3.90;3.80;;;13.40;99.90;;;;;;4923793;29;20486;-73
2021/05/02 11:53:13;;;;;;;3.07;2.97;;;13.40;99.90;;;;;;4921522;29;20471;-74
2021/05/02 11:55:41;;;;;;;2.80;2.70;;;13.50;99.90;;;;;;4919829;29;20470;-74
2021/05/02 11:58:09;;;;;;;3.17;3.07;;;13.30;99.90;;;;;;4918741;29;20462;-74
2021/05/02 12:00:41;;;;;;;3.33;3.30;;;13.30;99.90;;;;;;4922580;29;20494;-74
2021/05/02 12:03:09;;;;;;;4.00;3.80;;;13.40;99.90;;;;;;4920371;29;20470;-75
2021/05/02 12:05:47;;;;;;;4.30;4.10;;;13.40;99.90;;;;;;4921857;29;20462;-75
2021/05/02 12:08:15;;;;;;;5.00;4.63;;;13.60;99.90;;;;;;4920273;29;20807;-75
2021/05/02 12:10:42;;;;;;;5.43;5.13;;;13.90;99.90;;;;;;4919055;29;21006;-75
2021/05/02 12:13:27;;;;;;;5.63;5.33;;;14.10;99.90;;;;;;4918557;29;20548;-75
2021/05/02 12:16:00;;;;;;;5.77;5.47;;;14.10;99.90;;;;;;4917941;29;20919;-75
2021/05/02 12:18:44;;;;;;;6.90;6.33;;;14.10;99.90;;;;;;4920149;29;20446;-72
2021/05/02 12:21:16;;;;;;;6.40;5.90;;;14.00;99.90;;;;;;4920579;29;20620;-72
2021/05/02 12:23:43;;;;;;;5.50;5.20;;;13.90;99.90;;;;;;4920127;29;20501;-72
2021/05/02 12:26:10;;;;;;;6.03;5.63;;;13.90;99.90;;;;;;4920170;29;20466;-72
2021/05/02 12:28:36;;;;;;;5.73;5.30;;;13.80;99.90;;;;;;4919708;29;20477;-72
2021/05/02 12:31:05;;;;;;;5.87;5.57;;;13.80;99.90;;;;;;4919175;29;20481;-72
2021/05/02 12:33:34;;;;;;;5.30;5.00;;;13.90;99.90;;;;;;4918819;29;20470;-75
2021/05/02 12:36:01;;;;;;;4.87;4.47;;;14.00;99.90;;;;;;4919414;29;20498;-72
2021/05/02 12:38:28;;;;;;;4.47;4.20;;;14.10;99.90;;;;;;4919638;29;20475;-72
2021/05/02 12:40:55;;;;;;;4.50;4.20;;;14.10;99.90;;;;;;4918095;29;20509;-74
2021/05/02 12:43:26;;;;;;;4.90;4.63;;;14.00;99.90;;;;;;4917491;29;20474;-75
2021/05/02 12:45:53;;;;;;;5.13;4.80;;;13.90;99.90;;;;;;4918608;29;20463;-72
2021/05/02 12:48:31;;;;;;;5.77;5.50;;;13.80;99.90;;;;;;4919216;29;20483;-71
2021/05/02 12:50:58;;;;;;;5.30;4.80;;;13.70;99.90;;;;;;4919811;29;20490;-72
2021/05/02 12:53:40;;;;;;;5.30;5.00;;;13.70;99.90;;;;;;4917298;29;20521;-70
2021/05/02 12:56:07;;;;;;;5.70;5.40;;;13.70;99.90;;;;;;4916937;29;20473;-70
2021/05/02 12:58:38;;;;;;;6.03;5.63;;;13.80;99.90;;;;;;4916522;29;20475;-70
2021/05/02 13:01:12;;;;;;;5.40;5.00;;;13.70;99.90;;;;;;4916199;29;20995;-70
2021/05/02 13:03:39;;;;;;;4.70;4.40;;;13.50;99.90;;;;;;4916589;29;20497;-70
2021/05/02 13:06:08;;;;;;;5.20;4.90;;;13.40;99.90;;;;;;4916780;29;20837;-70
2021/05/02 13:08:35;;;;;;;4.13;3.93;;;13.30;99.90;;;;;;4916545;29;20470;-70
2021/05/02 13:11:34;;;;;;;4.93;4.63;;;13.40;99.90;;;;;;4916422;29;20495;-70
2021/05/02 13:14:17;;;;;;;4.23;4.13;;;13.40;99.90;;;;;;4915584;29;20469;-70
2021/05/02 13:16:46;;;;;;;4.70;4.50;;;13.50;99.90;;;;;;4916402;29;20473;-74
2021/05/02 13:19:26;;;;;;;4.03;3.73;;;13.60;99.90;;;;;;4917456;29;20513;-71
2021/05/02 13:21:53;;;;;;;4.97;4.77;;;13.50;99.90;;;;;;4917686;29;20490;-70
2021/05/02 13:24:20;;;;;;;4.73;4.53;;;13.40;99.90;;;;;;4916505;29;20478;-70
2021/05/02 13:26:47;;;;;;;5.17;4.80;;;13.40;99.90;;;;;;4916619;29;20459;-70
2021/05/02 13:29:16;;;;;;;4.97;4.68;;;13.40;99.90;;;;;;4916568;29;20458;-70
2021/05/02 13:31:48;;;;;;;5.23;4.93;;;13.40;99.90;;;;;;4916492;29;20563;-69
2021/05/02 13:34:16;;;;;;;4.43;4.23;;;13.50;99.90;;;;;;4916051;29;20470;-69
2021/05/02 13:36:44;;;;;;;5.18;4.82;;;13.50;99.90;;;;;;4916151;29;20470;-69
2021/05/02 13:39:12;;;;;;;5.60;5.10;;;13.40;99.90;;;;;;4916321;29;20585;-69
2021/05/02 13:41:38;;;;;;;4.15;3.92;;;13.20;99.90;;;;;;4916080;29;20246;-69
2021/05/02 13:44:10;;;;;;;5.40;5.03;;;12.80;99.90;;;;;;4915941;29;20221;-69
2021/05/02 13:46:36;;;;;;;5.40;5.03;;;12.50;99.90;;;;;;4915867;29;20226;-69
2021/05/02 13:49:03;;;;;;;5.35;4.95;;;12.10;99.90;;;;;;4915990;29;20222;-69
2021/05/02 13:51:30;;;;;;;5.43;5.03;;;11.90;99.90;;;;;;4916201;29;20272;-68
2021/05/02 13:53:56;;;;;;;6.85;6.13;;;11.70;99.90;;;;;;4915883;29;20665;-69
2021/05/02 13:56:23;;;;;;;6.13;5.72;;;11.80;99.90;;;;;;4915901;29;20210;-68
2021/05/02 13:58:50;;;;;;;5.68;5.30;;;11.90;99.90;;;;;;4915553;29;20304;-68
2021/05/02 14:01:18;;;;;;;6.35;5.75;;;11.90;99.90;;;;;;4915437;29;20242;-68
2021/05/02 14:03:44;;;;;;;5.60;5.30;;;12.00;99.90;;;;;;4915858;29;20214;-70
2021/05/02 14:06:10;;;;;;;5.75;5.32;;;12.10;99.90;;;;;;4915655;29;20221;-69
2021/05/02 14:08:37;;;;;;;5.10;4.80;;;12.10;99.90;;;;;;4915860;29;20233;-73
2021/05/02 14:11:04;;;;;;;4.10;3.90;;;12.00;99.90;;;;;;4915910;29;20679;-74
2021/05/02 14:13:31;;;;;;;5.00;4.60;;;11.90;99.90;;;;;;4915574;29;20215;-74
2021/05/02 14:15:57;;;;;;;3.40;3.30;;;11.90;99.90;;;;;;4915643;29;20715;-73
2021/05/02 14:18:24;;;;;;;3.38;3.20;;;11.90;99.90;;;;;;4915982;29;20222;-73
2021/05/02 14:20:51;;;;;;;2.80;2.70;;;12.00;99.90;;;;;;4916023;29;20234;-73
2021/05/02 14:23:17;;;;;;;3.28;3.03;;;12.00;99.90;;;;;;4915838;29;20528;-70
2021/05/02 14:25:47;;;;;;;2.70;2.70;;;12.00;99.90;;;;;;4916306;29;20238;-70
2021/05/02 14:28:14;;;;;;;2.95;2.70;;;12.00;99.90;;;;;;4919070;29;20213;-70
2021/05/02 14:30:40;;;;;;;3.25;2.40;;;11.90;99.90;;;;;;4919308;29;20730;-70
2021/05/02 14:33:06;;;;;;;2.80;2.60;;;11.70;99.90;;;;;;4919377;29;20252;-73
2021/05/02 14:35:33;;;;;;;3.78;3.47;;;11.60;99.90;;;;;;4919623;29;20286;-73
2021/05/02 14:38:00;;;;;;;3.20;3.10;;;11.60;99.90;;;;;;4919617;29;20297;-73
2021/05/02 14:40:26;;;;;;;3.53;2.90;;;11.60;99.90;;;;;;4919435;29;20245;-73
2021/05/02 14:42:52;;;;;;;3.22;3.13;;;11.60;99.90;;;;;;4919354;29;20218;-74
2021/05/02 14:45:19;;;;;;;3.50;3.40;;;11.60;99.90;;;;;;4919082;29;20210;-74
2021/05/02 14:47:46;;;;;;;3.42;3.33;;;11.60;99.90;;;;;;4919241;29;20225;-74
2021/05/02 14:50:14;;;;;;;2.88;2.78;;;11.60;99.90;;;;;;4919200;29;20210;-74
2021/05/02 14:52:43;;;;;;;4.95;3.22;;;11.50;99.90;;;;;;4919713;29;20615;-74
2021/05/02 14:55:10;;;;;;;4.05;3.88;;;11.30;99.90;;;;;;4919322;29;20214;-74
2021/05/02 14:57:36;;;;;;;3.67;3.47;;;11.30;99.90;;;;;;4919229;29;20230;-74
2021/05/02 15:00:04;;;;;;;3.42;3.33;;;11.30;99.90;;;;;;4921648;29;20231;-75
2021/05/02 15:02:31;;;;;;;3.42;3.20;;;11.20;99.90;;;;;;4920881;29;20218;-74
2021/05/02 15:04:57;;;;;;;4.45;4.15;;;11.20;99.90;;;;;;4920461;29;20215;-74
2021/05/02 15:07:23;;;;;;;3.95;3.78;;;11.20;99.90;;;;;;4920573;29;20250;-74
2021/05/02 15:09:50;;;;;;;5.68;4.13;;;11.10;99.90;;;;;;4919440;29;20556;-74
2021/05/02 15:12:16;;;;;;;4.30;4.10;;;11.00;99.90;;;;;;4918935;29;20242;-74
2021/05/02 15:14:42;;;;;;;3.63;3.53;;;11.00;99.90;;;;;;4918893;29;20210;-74
2021/05/02 15:17:08;;;;;;;4.43;4.18;;;10.90;99.90;;;;;;4918274;29;20202;-74
2021/05/02 15:19:35;;;;;;;4.25;4.05;;;10.80;99.90;;;;;;4918510;29;20321;-73
2021/05/02 15:22:01;;;;;;;6.70;4.88;;;10.80;99.90;;;;;;4919578;29;20231;-74
2021/05/02 15:24:29;;;;;;;12.50;8.63;;;10.80;99.90;;;;;;4919319;29;20226;-74
2021/05/02 15:26:56;;;;;;;5.60;5.10;;;10.80;99.90;;;;;;4919133;29;20210;-74
2021/05/02 15:29:23;;;;;;;4.30;3.95;;;10.80;99.90;;;;;;4918309;29;20211;-74
2021/05/02 15:31:49;;;;;;;5.00;4.60;;;10.70;99.90;;;;;;4918453;29;20227;-73
2021/05/02 15:34:16;;;;;;;4.18;3.90;;;10.70;99.90;;;;;;4918669;29;20278;-73
2021/05/02 15:36:42;;;;;;;4.03;3.72;;;10.70;99.90;;;;;;4918641;29;20213;-74
2021/05/02 15:39:09;;;;;;;4.15;3.85;;;10.70;99.90;;;;;;4918859;29;20210;-73
2021/05/02 15:41:36;;;;;;;3.90;3.70;;;10.70;99.90;;;;;;4919800;29;20230;-74
2021/05/02 15:44:05;;;;;;;4.90;4.50;;;10.60;99.90;;;;;;4920296;29;20238;-74
2021/05/02 15:46:31;;;;;;;4.40;4.20;;;10.70;99.90;;;;;;4919829;29;20206;-74
2021/05/02 15:48:58;;;;;;;4.40;4.05;;;10.70;99.90;;;;;;4923748;29;20241;-74
2021/05/02 15:51:24;;;;;;;3.90;3.70;;;10.80;99.90;;;;;;4925016;29;20282;-74
2021/05/02 15:53:52;;;;;;;4.00;3.80;;;10.80;99.90;;;;;;4926144;29;20211;-74
2021/05/02 15:56:18;;;;;;;4.82;4.43;;;10.80;99.90;;;;;;4925618;29;20221;-74
2021/05/02 15:58:44;;;;;;;2.92;2.80;;;10.80;99.90;;;;;;4922742;29;20631;-73
2021/05/02 16:01:11;;;;;;;3.90;3.70;;;10.70;99.90;;;;;;4919030;29;20253;-74
2021/05/02 16:03:38;;;;;;;4.20;3.90;;;10.70;99.90;;;;;;4918597;29;20206;-74
2021/05/02 16:06:05;;;;;;;5.07;4.85;;;10.40;99.90;;;;;;4918129;29;20556;-74
2021/05/02 16:08:32;;;;;;;5.40;5.03;;;10.00;99.90;;;;;;4917677;29;20215;-74
2021/05/02 16:10:58;;;;;;;5.00;4.60;;;9.70;99.90;;;;;;4917385;29;20229;-74
2021/05/02 16:13:25;;;;;;;5.45;5.05;;;9.40;99.90;;;;;;4916687;29;20683;-74
2021/05/02 16:15:51;;;;;;;5.15;4.88;;;9.20;99.90;;;;;;4917237;29;20626;-74
2021/05/02 16:18:18;;;;;;;5.20;4.80;;;9.00;99.90;;;;;;4917501;29;20214;-74
2021/05/02 16:20:45;;;;;;;6.57;5.05;;;8.90;99.90;;;;;;4917600;29;20246;-74
2021/05/02 16:23:12;;;;;;;5.18;4.78;;;8.80;99.90;;;;;;4921221;29;20218;-73
2021/05/02 16:25:38;;;;;;;5.15;4.85;;;8.70;99.90;;;;;;4919091;29;20333;-74
2021/05/02 16:28:05;;;;;;;5.55;5.07;;;8.70;99.90;;;;;;4917206;29;20547;-73
2021/05/02 16:30:31;;;;;;;4.95;4.55;;;8.70;99.90;;;;;;4917042;29;20230;-73
2021/05/02 16:32:57;;;;;;;5.47;5.05;;;8.60;99.90;;;;;;4917606;29;20659;-74
2021/05/02 16:35:25;;;;;;;6.07;5.57;;;8.70;99.90;;;;;;4920417;29;20221;-73
2021/05/02 16:37:51;;;;;;;5.65;5.25;;;8.60;99.90;;;;;;4921160;29;20217;-74
2021/05/02 16:40:17;;;;;;;5.78;5.28;;;8.50;99.90;;;;;;4922756;29;20230;-74
2021/05/02 16:42:44;;;;;;;20.98;6.72;;;8.40;99.90;;;;;;4918137;29;20213;-74
2021/05/02 16:45:11;;;;;;;6.03;5.65;;;8.30;99.90;;;;;;4917521;29;20278;-73